sensor_id;sensor_type;location;lat;lon;timestamp;P1;durP1;ratioP1;P2;durP2;ratioP2
8421;SDS011;4248;48.196;10.924;2022-08-19T00:01:22;14.07;;;10.37;;
8421;SDS011;4248;48.196;10.924;2022-08-19T00:03:49;13.87;;;9.63;;
8421;SDS011;4248;48.196;10.924;2022-08-19T00:06:15;15.27;;;10.40;;
8421;SDS011;4248;48.196;10.924;2022-08-19T00:08:41;20.93;;;10.53;;
8421;SDS011;4248;48.196;10.924;2022-08-19T00:11:08;16.23;;;11.30;;
8421;SDS011;4248;48.196;10.924;2022-08-19T00:13:34;18.23;;;12.00;;
8421;SDS011;4248;48.196;10.924;2022-08-19T00:16:01;19.30;;;13.57;;
8421;SDS011;4248;48.196;10.924;2022-08-19T00:18:27;24.20;;;15.37;;
8421;SDS011;4248;48.196;10.924;2022-08-19T00:20:53;20.57;;;14.10;;
8421;SDS011;4248;48.196;10.924;2022-08-19T00:23:19;29.30;;;14.10;;
8421;SDS011;4248;48.196;10.924;2022-08-19T00:25:45;19.73;;;14.00;;
8421;SDS011;4248;48.196;10.924;2022-08-19T00:28:11;21.77;;;14.30;;
8421;SDS011;4248;48.196;10.924;2022-08-19T00:30:37;23.03;;;14.93;;
8421;SDS011;4248;48.196;10.924;2022-08-19T00:33:03;18.17;;;13.10;;
8421;SDS011;4248;48.196;10.924;2022-08-19T00:35:29;18.07;;;12.47;;
8421;SDS011;4248;48.196;10.924;2022-08-19T00:37:54;19.80;;;12.63;;
8421;SDS011;4248;48.196;10.924;2022-08-19T00:40:21;25.70;;;12.80;;
8421;SDS011;4248;48.196;10.924;2022-08-19T00:42:47;16.97;;;11.90;;
8421;SDS011;4248;48.196;10.924;2022-08-19T00:45:17;21.30;;;13.07;;
8421;SDS011;4248;48.196;10.924;2022-08-19T00:47:44;21.43;;;12.03;;
8421;SDS011;4248;48.196;10.924;2022-08-19T00:50:11;19.13;;;13.43;;
8421;SDS011;4248;48.196;10.924;2022-08-19T00:52:40;22.00;;;14.70;;
8421;SDS011;4248;48.196;10.924;2022-08-19T00:55:10;22.90;;;14.07;;
8421;SDS011;4248;48.196;10.924;2022-08-19T00:57:40;20.20;;;13.40;;
8421;SDS011;4248;48.196;10.924;2022-08-19T01:00:12;17.80;;;13.27;;
8421;SDS011;4248;48.196;10.924;2022-08-19T01:02:41;21.10;;;13.20;;
8421;SDS011;4248;48.196;10.924;2022-08-19T01:05:09;19.83;;;13.27;;
8421;SDS011;4248;48.196;10.924;2022-08-19T01:07:49;22.20;;;14.27;;
8421;SDS011;4248;48.196;10.924;2022-08-19T01:10:17;19.20;;;14.50;;
8421;SDS011;4248;48.196;10.924;2022-08-19T01:12:45;27.13;;;14.90;;
8421;SDS011;4248;48.196;10.924;2022-08-19T01:15:12;23.43;;;15.10;;
8421;SDS011;4248;48.196;10.924;2022-08-19T01:17:40;21.73;;;14.80;;
8421;SDS011;4248;48.196;10.924;2022-08-19T01:20:17;23.17;;;14.70;;
8421;SDS011;4248;48.196;10.924;2022-08-19T01:22:49;19.40;;;13.80;;
8421;SDS011;4248;48.196;10.924;2022-08-19T01:25:20;20.87;;;14.33;;
8421;SDS011;4248;48.196;10.924;2022-08-19T01:27:49;21.63;;;15.13;;
8421;SDS011;4248;48.196;10.924;2022-08-19T01:30:21;19.53;;;13.90;;
8421;SDS011;4248;48.196;10.924;2022-08-19T01:32:50;19.83;;;14.50;;
8421;SDS011;4248;48.196;10.924;2022-08-19T01:35:16;19.67;;;13.53;;
8421;SDS011;4248;48.196;10.924;2022-08-19T01:40:14;22.23;;;14.63;;
8421;SDS011;4248;48.196;10.924;2022-08-19T01:42:41;19.90;;;13.60;;
8421;SDS011;4248;48.196;10.924;2022-08-19T01:45:07;20.07;;;13.77;;
8421;SDS011;4248;48.196;10.924;2022-08-19T01:47:34;19.07;;;14.20;;
8421;SDS011;4248;48.196;10.924;2022-08-19T01:50:01;21.73;;;15.50;;
8421;SDS011;4248;48.196;10.924;2022-08-19T01:52:27;20.97;;;15.30;;
8421;SDS011;4248;48.196;10.924;2022-08-19T01:54:53;21.10;;;14.20;;
8421;SDS011;4248;48.196;10.924;2022-08-19T01:57:18;21.70;;;14.60;;
8421;SDS011;4248;48.196;10.924;2022-08-19T01:59:44;21.73;;;14.27;;
8421;SDS011;4248;48.196;10.924;2022-08-19T02:02:11;22.03;;;14.80;;
8421;SDS011;4248;48.196;10.924;2022-08-19T02:04:37;19.90;;;13.03;;
8421;SDS011;4248;48.196;10.924;2022-08-19T02:07:03;18.90;;;13.20;;
8421;SDS011;4248;48.196;10.924;2022-08-19T02:09:30;19.07;;;13.63;;
8421;SDS011;4248;48.196;10.924;2022-08-19T02:11:57;19.67;;;14.07;;
8421;SDS011;4248;48.196;10.924;2022-08-19T02:14:23;20.80;;;14.67;;
8421;SDS011;4248;48.196;10.924;2022-08-19T02:16:49;23.03;;;15.07;;
8421;SDS011;4248;48.196;10.924;2022-08-19T02:19:15;21.13;;;14.67;;
8421;SDS011;4248;48.196;10.924;2022-08-19T02:21:41;22.53;;;14.93;;
8421;SDS011;4248;48.196;10.924;2022-08-19T02:24:08;20.63;;;13.67;;
8421;SDS011;4248;48.196;10.924;2022-08-19T02:26:34;22.77;;;14.83;;
8421;SDS011;4248;48.196;10.924;2022-08-19T02:29:00;22.70;;;15.77;;
8421;SDS011;4248;48.196;10.924;2022-08-19T02:31:26;21.77;;;15.27;;
8421;SDS011;4248;48.196;10.924;2022-08-19T02:33:53;25.70;;;17.03;;
8421;SDS011;4248;48.196;10.924;2022-08-19T02:36:20;22.80;;;14.30;;
8421;SDS011;4248;48.196;10.924;2022-08-19T02:38:46;22.07;;;15.03;;
8421;SDS011;4248;48.196;10.924;2022-08-19T02:41:17;22.30;;;14.73;;
8421;SDS011;4248;48.196;10.924;2022-08-19T02:43:45;23.70;;;15.63;;
8421;SDS011;4248;48.196;10.924;2022-08-19T02:46:15;23.07;;;15.80;;
8421;SDS011;4248;48.196;10.924;2022-08-19T02:48:42;21.23;;;15.50;;
8421;SDS011;4248;48.196;10.924;2022-08-19T02:51:08;22.67;;;16.20;;
8421;SDS011;4248;48.196;10.924;2022-08-19T02:53:41;27.80;;;17.17;;
8421;SDS011;4248;48.196;10.924;2022-08-19T02:56:07;24.70;;;16.20;;
8421;SDS011;4248;48.196;10.924;2022-08-19T02:58:33;27.30;;;15.73;;
8421;SDS011;4248;48.196;10.924;2022-08-19T03:00:59;22.03;;;14.93;;
8421;SDS011;4248;48.196;10.924;2022-08-19T03:03:24;28.60;;;17.20;;
8421;SDS011;4248;48.196;10.924;2022-08-19T03:05:50;28.00;;;17.00;;
8421;SDS011;4248;48.196;10.924;2022-08-19T03:08:16;24.13;;;16.57;;
8421;SDS011;4248;48.196;10.924;2022-08-19T03:10:43;22.13;;;15.07;;
8421;SDS011;4248;48.196;10.924;2022-08-19T03:13:15;21.00;;;15.00;;
8421;SDS011;4248;48.196;10.924;2022-08-19T03:15:43;23.03;;;16.57;;
8421;SDS011;4248;48.196;10.924;2022-08-19T03:18:11;21.47;;;15.47;;
8421;SDS011;4248;48.196;10.924;2022-08-19T03:20:42;26.93;;;16.60;;
8421;SDS011;4248;48.196;10.924;2022-08-19T03:23:12;25.43;;;17.37;;
8421;SDS011;4248;48.196;10.924;2022-08-19T03:25:39;22.63;;;16.97;;
8421;SDS011;4248;48.196;10.924;2022-08-19T03:28:08;20.43;;;14.97;;
8421;SDS011;4248;48.196;10.924;2022-08-19T03:30:38;23.53;;;15.63;;
8421;SDS011;4248;48.196;10.924;2022-08-19T03:33:09;28.00;;;17.70;;
8421;SDS011;4248;48.196;10.924;2022-08-19T03:35:37;25.23;;;17.23;;
8421;SDS011;4248;48.196;10.924;2022-08-19T03:38:04;21.43;;;16.50;;
8421;SDS011;4248;48.196;10.924;2022-08-19T03:40:30;23.30;;;17.07;;
8421;SDS011;4248;48.196;10.924;2022-08-19T03:42:56;24.60;;;16.87;;
8421;SDS011;4248;48.196;10.924;2022-08-19T03:45:23;25.43;;;16.40;;
8421;SDS011;4248;48.196;10.924;2022-08-19T03:47:48;26.50;;;19.13;;
8421;SDS011;4248;48.196;10.924;2022-08-19T03:50:15;27.83;;;16.67;;
8421;SDS011;4248;48.196;10.924;2022-08-19T03:52:42;25.87;;;17.87;;
8421;SDS011;4248;48.196;10.924;2022-08-19T03:55:07;25.03;;;17.97;;
8421;SDS011;4248;48.196;10.924;2022-08-19T03:57:33;19.97;;;14.87;;
8421;SDS011;4248;48.196;10.924;2022-08-19T03:59:59;23.43;;;16.17;;
8421;SDS011;4248;48.196;10.924;2022-08-19T04:02:25;23.60;;;16.60;;
8421;SDS011;4248;48.196;10.924;2022-08-19T04:04:52;25.07;;;17.20;;
8421;SDS011;4248;48.196;10.924;2022-08-19T04:07:19;31.27;;;20.50;;
8421;SDS011;4248;48.196;10.924;2022-08-19T04:09:46;26.20;;;19.10;;
8421;SDS011;4248;48.196;10.924;2022-08-19T04:12:12;23.70;;;16.80;;
8421;SDS011;4248;48.196;10.924;2022-08-19T04:14:38;25.67;;;17.63;;
8421;SDS011;4248;48.196;10.924;2022-08-19T04:17:04;29.73;;;19.70;;
8421;SDS011;4248;48.196;10.924;2022-08-19T04:19:30;27.97;;;19.30;;
8421;SDS011;4248;48.196;10.924;2022-08-19T04:21:56;26.90;;;18.80;;
8421;SDS011;4248;48.196;10.924;2022-08-19T04:24:23;33.70;;;19.60;;
8421;SDS011;4248;48.196;10.924;2022-08-19T04:26:50;33.93;;;20.33;;
8421;SDS011;4248;48.196;10.924;2022-08-19T04:29:24;28.37;;;19.00;;
8421;SDS011;4248;48.196;10.924;2022-08-19T04:31:52;33.70;;;20.70;;
8421;SDS011;4248;48.196;10.924;2022-08-19T04:34:20;31.80;;;21.47;;
8421;SDS011;4248;48.196;10.924;2022-08-19T04:36:47;36.70;;;23.40;;
8421;SDS011;4248;48.196;10.924;2022-08-19T04:39:16;36.70;;;22.97;;
8421;SDS011;4248;48.196;10.924;2022-08-19T04:41:44;36.50;;;22.20;;
8421;SDS011;4248;48.196;10.924;2022-08-19T04:44:30;33.47;;;21.20;;
8421;SDS011;4248;48.196;10.924;2022-08-19T04:46:57;38.43;;;23.70;;
8421;SDS011;4248;48.196;10.924;2022-08-19T04:49:23;30.20;;;21.23;;
8421;SDS011;4248;48.196;10.924;2022-08-19T04:51:50;37.80;;;23.13;;
8421;SDS011;4248;48.196;10.924;2022-08-19T04:54:18;32.93;;;22.40;;
8421;SDS011;4248;48.196;10.924;2022-08-19T04:56:47;31.00;;;20.97;;
8421;SDS011;4248;48.196;10.924;2022-08-19T04:59:14;31.73;;;21.73;;
8421;SDS011;4248;48.196;10.924;2022-08-19T05:01:42;34.17;;;20.90;;
8421;SDS011;4248;48.196;10.924;2022-08-19T05:04:08;31.47;;;21.30;;
8421;SDS011;4248;48.196;10.924;2022-08-19T05:06:34;30.17;;;20.87;;
8421;SDS011;4248;48.196;10.924;2022-08-19T05:09:01;35.17;;;21.50;;
8421;SDS011;4248;48.196;10.924;2022-08-19T05:11:34;32.30;;;20.80;;
8421;SDS011;4248;48.196;10.924;2022-08-19T05:14:04;29.43;;;20.23;;
8421;SDS011;4248;48.196;10.924;2022-08-19T05:16:30;33.70;;;21.27;;
8421;SDS011;4248;48.196;10.924;2022-08-19T05:18:55;35.83;;;20.87;;
8421;SDS011;4248;48.196;10.924;2022-08-19T05:21:40;35.57;;;21.30;;
8421;SDS011;4248;48.196;10.924;2022-08-19T05:24:25;29.60;;;20.10;;
8421;SDS011;4248;48.196;10.924;2022-08-19T05:26:51;26.43;;;19.53;;
8421;SDS011;4248;48.196;10.924;2022-08-19T05:29:21;31.90;;;19.93;;
8421;SDS011;4248;48.196;10.924;2022-08-19T05:31:48;31.03;;;20.87;;
8421;SDS011;4248;48.196;10.924;2022-08-19T05:34:14;29.90;;;20.60;;
8421;SDS011;4248;48.196;10.924;2022-08-19T05:36:42;33.90;;;21.27;;
8421;SDS011;4248;48.196;10.924;2022-08-19T05:39:10;31.43;;;22.00;;
8421;SDS011;4248;48.196;10.924;2022-08-19T05:41:57;31.37;;;21.80;;
8421;SDS011;4248;48.196;10.924;2022-08-19T05:44:25;26.83;;;19.40;;
8421;SDS011;4248;48.196;10.924;2022-08-19T05:46:51;28.50;;;19.20;;
8421;SDS011;4248;48.196;10.924;2022-08-19T05:49:18;32.63;;;20.97;;
8421;SDS011;4248;48.196;10.924;2022-08-19T05:51:46;30.30;;;19.80;;
8421;SDS011;4248;48.196;10.924;2022-08-19T05:54:12;30.10;;;20.20;;
8421;SDS011;4248;48.196;10.924;2022-08-19T05:56:41;29.50;;;19.80;;
8421;SDS011;4248;48.196;10.924;2022-08-19T05:59:08;31.40;;;19.77;;
8421;SDS011;4248;48.196;10.924;2022-08-19T06:01:36;33.93;;;20.73;;
8421;SDS011;4248;48.196;10.924;2022-08-19T06:04:04;24.73;;;16.57;;
8421;SDS011;4248;48.196;10.924;2022-08-19T06:06:30;29.13;;;19.90;;
8421;SDS011;4248;48.196;10.924;2022-08-19T06:08:55;30.03;;;19.37;;
8421;SDS011;4248;48.196;10.924;2022-08-19T06:11:23;27.13;;;17.93;;
8421;SDS011;4248;48.196;10.924;2022-08-19T06:13:57;31.87;;;20.30;;
8421;SDS011;4248;48.196;10.924;2022-08-19T06:16:24;28.47;;;18.77;;
8421;SDS011;4248;48.196;10.924;2022-08-19T06:18:50;28.27;;;18.13;;
8421;SDS011;4248;48.196;10.924;2022-08-19T06:21:21;28.43;;;19.57;;
8421;SDS011;4248;48.196;10.924;2022-08-19T06:23:49;24.20;;;16.50;;
8421;SDS011;4248;48.196;10.924;2022-08-19T06:26:16;26.63;;;17.87;;
8421;SDS011;4248;48.196;10.924;2022-08-19T06:28:43;24.57;;;17.77;;
8421;SDS011;4248;48.196;10.924;2022-08-19T06:31:18;26.40;;;18.03;;
8421;SDS011;4248;48.196;10.924;2022-08-19T06:33:47;22.97;;;16.23;;
8421;SDS011;4248;48.196;10.924;2022-08-19T06:36:17;26.10;;;16.20;;
8421;SDS011;4248;48.196;10.924;2022-08-19T06:38:46;22.67;;;15.90;;
8421;SDS011;4248;48.196;10.924;2022-08-19T06:41:12;25.77;;;17.63;;
8421;SDS011;4248;48.196;10.924;2022-08-19T06:43:38;24.27;;;17.87;;
8421;SDS011;4248;48.196;10.924;2022-08-19T06:46:09;25.23;;;17.17;;
8421;SDS011;4248;48.196;10.924;2022-08-19T06:48:36;26.67;;;18.60;;
8421;SDS011;4248;48.196;10.924;2022-08-19T06:51:02;26.67;;;18.47;;
8421;SDS011;4248;48.196;10.924;2022-08-19T06:53:30;28.70;;;18.33;;
8421;SDS011;4248;48.196;10.924;2022-08-19T06:55:55;29.70;;;20.30;;
8421;SDS011;4248;48.196;10.924;2022-08-19T06:58:25;31.13;;;20.67;;
8421;SDS011;4248;48.196;10.924;2022-08-19T07:00:51;34.10;;;20.27;;
8421;SDS011;4248;48.196;10.924;2022-08-19T07:03:16;34.00;;;20.90;;
8421;SDS011;4248;48.196;10.924;2022-08-19T07:05:42;33.50;;;21.10;;
8421;SDS011;4248;48.196;10.924;2022-08-19T07:08:09;28.07;;;19.73;;
8421;SDS011;4248;48.196;10.924;2022-08-19T07:10:34;36.63;;;21.70;;
8421;SDS011;4248;48.196;10.924;2022-08-19T07:13:01;33.37;;;21.40;;
8421;SDS011;4248;48.196;10.924;2022-08-19T07:15:27;37.53;;;21.30;;
8421;SDS011;4248;48.196;10.924;2022-08-19T07:17:53;34.30;;;20.23;;
8421;SDS011;4248;48.196;10.924;2022-08-19T07:20:19;34.37;;;21.63;;
8421;SDS011;4248;48.196;10.924;2022-08-19T07:22:45;35.57;;;22.20;;
8421;SDS011;4248;48.196;10.924;2022-08-19T07:25:12;34.63;;;21.40;;
8421;SDS011;4248;48.196;10.924;2022-08-19T07:27:38;35.50;;;23.80;;
8421;SDS011;4248;48.196;10.924;2022-08-19T07:30:04;36.90;;;23.03;;
8421;SDS011;4248;48.196;10.924;2022-08-19T07:32:30;40.70;;;24.53;;
8421;SDS011;4248;48.196;10.924;2022-08-19T07:34:56;41.73;;;24.83;;
8421;SDS011;4248;48.196;10.924;2022-08-19T07:37:22;34.63;;;22.90;;
8421;SDS011;4248;48.196;10.924;2022-08-19T07:39:52;41.87;;;23.97;;
8421;SDS011;4248;48.196;10.924;2022-08-19T07:42:18;48.73;;;26.00;;
8421;SDS011;4248;48.196;10.924;2022-08-19T07:44:46;42.20;;;27.07;;
8421;SDS011;4248;48.196;10.924;2022-08-19T07:47:11;41.00;;;25.63;;
8421;SDS011;4248;48.196;10.924;2022-08-19T07:49:40;43.97;;;26.60;;
8421;SDS011;4248;48.196;10.924;2022-08-19T07:52:07;41.60;;;26.03;;
8421;SDS011;4248;48.196;10.924;2022-08-19T07:54:35;50.23;;;26.97;;
8421;SDS011;4248;48.196;10.924;2022-08-19T07:57:03;44.07;;;26.10;;
8421;SDS011;4248;48.196;10.924;2022-08-19T07:59:29;45.43;;;27.40;;
8421;SDS011;4248;48.196;10.924;2022-08-19T08:01:55;43.00;;;26.37;;
8421;SDS011;4248;48.196;10.924;2022-08-19T08:04:22;41.87;;;26.30;;
8421;SDS011;4248;48.196;10.924;2022-08-19T08:07:06;41.83;;;26.00;;
8421;SDS011;4248;48.196;10.924;2022-08-19T08:09:51;42.67;;;26.20;;
8421;SDS011;4248;48.196;10.924;2022-08-19T08:12:29;47.67;;;26.93;;
8421;SDS011;4248;48.196;10.924;2022-08-19T08:14:58;52.10;;;29.50;;
8421;SDS011;4248;48.196;10.924;2022-08-19T08:17:29;45.83;;;28.23;;
8421;SDS011;4248;48.196;10.924;2022-08-19T08:19:55;51.97;;;29.50;;
8421;SDS011;4248;48.196;10.924;2022-08-19T08:22:22;44.47;;;27.80;;
8421;SDS011;4248;48.196;10.924;2022-08-19T08:25:10;48.53;;;30.57;;
8421;SDS011;4248;48.196;10.924;2022-08-19T08:27:42;51.70;;;31.30;;
8421;SDS011;4248;48.196;10.924;2022-08-19T08:30:13;57.93;;;32.90;;
8421;SDS011;4248;48.196;10.924;2022-08-19T08:32:42;50.17;;;30.40;;
8421;SDS011;4248;48.196;10.924;2022-08-19T08:35:09;67.03;;;32.40;;
8421;SDS011;4248;48.196;10.924;2022-08-19T08:37:37;59.67;;;32.17;;
8421;SDS011;4248;48.196;10.924;2022-08-19T08:40:07;52.33;;;31.17;;
8421;SDS011;4248;48.196;10.924;2022-08-19T08:42:46;60.70;;;31.70;;
8421;SDS011;4248;48.196;10.924;2022-08-19T08:45:17;57.80;;;31.60;;
8421;SDS011;4248;48.196;10.924;2022-08-19T08:47:44;50.37;;;30.90;;
8421;SDS011;4248;48.196;10.924;2022-08-19T08:50:25;54.07;;;30.37;;
8421;SDS011;4248;48.196;10.924;2022-08-19T08:52:53;57.43;;;29.53;;
8421;SDS011;4248;48.196;10.924;2022-08-19T08:55:23;52.00;;;29.43;;
8421;SDS011;4248;48.196;10.924;2022-08-19T08:58:16;51.23;;;27.33;;
8421;SDS011;4248;48.196;10.924;2022-08-19T09:00:46;56.10;;;29.57;;
8421;SDS011;4248;48.196;10.924;2022-08-19T09:03:17;39.83;;;22.00;;
8421;SDS011;4248;48.196;10.924;2022-08-19T09:11:04;31.50;;;17.20;;
8421;SDS011;4248;48.196;10.924;2022-08-19T09:16:20;22.30;;;14.23;;
8421;SDS011;4248;48.196;10.924;2022-08-19T09:18:53;28.13;;;15.93;;
8421;SDS011;4248;48.196;10.924;2022-08-19T09:21:22;27.13;;;16.07;;
8421;SDS011;4248;48.196;10.924;2022-08-19T09:23:49;24.33;;;15.43;;
8421;SDS011;4248;48.196;10.924;2022-08-19T09:26:16;28.43;;;17.07;;
8421;SDS011;4248;48.196;10.924;2022-08-19T09:28:45;29.43;;;19.00;;
8421;SDS011;4248;48.196;10.924;2022-08-19T09:31:13;37.97;;;19.13;;
8421;SDS011;4248;48.196;10.924;2022-08-19T09:33:40;39.80;;;20.20;;
8421;SDS011;4248;48.196;10.924;2022-08-19T09:36:09;35.40;;;20.00;;
8421;SDS011;4248;48.196;10.924;2022-08-19T09:38:36;40.30;;;20.80;;
8421;SDS011;4248;48.196;10.924;2022-08-19T09:41:06;35.50;;;21.03;;
8421;SDS011;4248;48.196;10.924;2022-08-19T09:43:33;39.77;;;21.80;;
8421;SDS011;4248;48.196;10.924;2022-08-19T09:46:02;31.53;;;17.63;;
8421;SDS011;4248;48.196;10.924;2022-08-19T09:48:30;26.87;;;14.33;;
8421;SDS011;4248;48.196;10.924;2022-08-19T09:51:01;20.53;;;12.40;;
8421;SDS011;4248;48.196;10.924;2022-08-19T09:53:28;19.37;;;10.93;;
8421;SDS011;4248;48.196;10.924;2022-08-19T09:55:55;19.27;;;10.53;;
8421;SDS011;4248;48.196;10.924;2022-08-19T09:58:21;19.73;;;10.47;;
8421;SDS011;4248;48.196;10.924;2022-08-19T10:00:52;17.13;;;10.30;;
8421;SDS011;4248;48.196;10.924;2022-08-19T10:03:18;19.20;;;10.73;;
8421;SDS011;4248;48.196;10.924;2022-08-19T10:05:44;21.23;;;11.07;;
8421;SDS011;4248;48.196;10.924;2022-08-19T10:08:13;14.80;;;10.93;;
8421;SDS011;4248;48.196;10.924;2022-08-19T10:10:41;12.50;;;8.87;;
8421;SDS011;4248;48.196;10.924;2022-08-19T10:13:09;13.90;;;7.90;;
8421;SDS011;4248;48.196;10.924;2022-08-19T10:15:35;15.63;;;6.87;;
8421;SDS011;4248;48.196;10.924;2022-08-19T10:18:04;11.93;;;6.77;;
8421;SDS011;4248;48.196;10.924;2022-08-19T10:20:31;19.30;;;7.40;;
8421;SDS011;4248;48.196;10.924;2022-08-19T10:22:56;13.43;;;7.30;;
8421;SDS011;4248;48.196;10.924;2022-08-19T10:25:24;63.40;;;10.10;;
8421;SDS011;4248;48.196;10.924;2022-08-19T10:27:51;16.57;;;8.40;;
8421;SDS011;4248;48.196;10.924;2022-08-19T10:30:17;14.83;;;8.07;;
8421;SDS011;4248;48.196;10.924;2022-08-19T10:32:43;14.30;;;8.07;;
8421;SDS011;4248;48.196;10.924;2022-08-19T10:35:10;15.10;;;9.03;;
8421;SDS011;4248;48.196;10.924;2022-08-19T10:37:37;14.57;;;7.80;;
8421;SDS011;4248;48.196;10.924;2022-08-19T10:40:04;11.33;;;7.30;;
8421;SDS011;4248;48.196;10.924;2022-08-19T10:42:32;10.33;;;6.97;;
8421;SDS011;4248;48.196;10.924;2022-08-19T10:44:58;11.03;;;7.30;;
8421;SDS011;4248;48.196;10.924;2022-08-19T10:47:24;13.10;;;7.33;;
8421;SDS011;4248;48.196;10.924;2022-08-19T10:49:51;10.33;;;6.63;;
8421;SDS011;4248;48.196;10.924;2022-08-19T10:52:35;14.47;;;7.90;;
8421;SDS011;4248;48.196;10.924;2022-08-19T10:55:05;11.50;;;7.33;;
8421;SDS011;4248;48.196;10.924;2022-08-19T10:57:50;9.83;;;6.53;;
8421;SDS011;4248;48.196;10.924;2022-08-19T11:00:18;8.30;;;5.73;;
8421;SDS011;4248;48.196;10.924;2022-08-19T11:02:48;10.60;;;6.43;;
8421;SDS011;4248;48.196;10.924;2022-08-19T11:05:14;10.17;;;7.30;;
8421;SDS011;4248;48.196;10.924;2022-08-19T11:07:41;11.30;;;6.40;;
8421;SDS011;4248;48.196;10.924;2022-08-19T11:10:08;10.33;;;5.77;;
8421;SDS011;4248;48.196;10.924;2022-08-19T11:12:38;10.33;;;5.53;;
8421;SDS011;4248;48.196;10.924;2022-08-19T11:15:06;9.67;;;5.57;;
8421;SDS011;4248;48.196;10.924;2022-08-19T11:17:33;9.00;;;5.80;;
8421;SDS011;4248;48.196;10.924;2022-08-19T11:20:00;11.63;;;6.20;;
8421;SDS011;4248;48.196;10.924;2022-08-19T11:22:29;10.37;;;6.83;;
8421;SDS011;4248;48.196;10.924;2022-08-19T11:24:55;8.73;;;6.07;;
8421;SDS011;4248;48.196;10.924;2022-08-19T11:27:21;11.97;;;6.67;;
8421;SDS011;4248;48.196;10.924;2022-08-19T11:29:46;10.70;;;6.03;;
8421;SDS011;4248;48.196;10.924;2022-08-19T11:32:12;11.03;;;6.17;;
8421;SDS011;4248;48.196;10.924;2022-08-19T11:34:39;11.13;;;6.73;;
8421;SDS011;4248;48.196;10.924;2022-08-19T11:37:05;9.90;;;6.57;;
8421;SDS011;4248;48.196;10.924;2022-08-19T11:39:32;12.10;;;6.30;;
8421;SDS011;4248;48.196;10.924;2022-08-19T11:42:00;9.57;;;6.40;;
8421;SDS011;4248;48.196;10.924;2022-08-19T11:44:46;10.20;;;6.30;;
8421;SDS011;4248;48.196;10.924;2022-08-19T11:47:12;10.20;;;6.77;;
8421;SDS011;4248;48.196;10.924;2022-08-19T11:49:38;11.97;;;7.90;;
8421;SDS011;4248;48.196;10.924;2022-08-19T11:52:04;14.00;;;7.40;;
8421;SDS011;4248;48.196;10.924;2022-08-19T11:54:29;10.97;;;7.50;;
8421;SDS011;4248;48.196;10.924;2022-08-19T11:56:55;11.23;;;7.30;;
8421;SDS011;4248;48.196;10.924;2022-08-19T11:59:21;9.33;;;6.30;;
8421;SDS011;4248;48.196;10.924;2022-08-19T12:01:47;11.50;;;7.07;;
8421;SDS011;4248;48.196;10.924;2022-08-19T12:04:13;11.97;;;7.40;;
8421;SDS011;4248;48.196;10.924;2022-08-19T12:06:40;8.90;;;5.90;;
8421;SDS011;4248;48.196;10.924;2022-08-19T12:09:06;9.97;;;5.87;;
8421;SDS011;4248;48.196;10.924;2022-08-19T12:11:34;7.40;;;5.27;;
8421;SDS011;4248;48.196;10.924;2022-08-19T12:14:01;7.00;;;5.00;;
8421;SDS011;4248;48.196;10.924;2022-08-19T12:16:29;7.27;;;4.87;;
8421;SDS011;4248;48.196;10.924;2022-08-19T12:18:56;7.33;;;3.93;;
8421;SDS011;4248;48.196;10.924;2022-08-19T12:21:24;6.43;;;4.27;;
8421;SDS011;4248;48.196;10.924;2022-08-19T12:23:53;5.97;;;4.27;;
8421;SDS011;4248;48.196;10.924;2022-08-19T12:26:20;5.60;;;4.03;;
8421;SDS011;4248;48.196;10.924;2022-08-19T12:28:46;5.50;;;3.50;;
8421;SDS011;4248;48.196;10.924;2022-08-19T12:31:13;5.40;;;3.33;;
8421;SDS011;4248;48.196;10.924;2022-08-19T12:33:40;6.17;;;2.73;;
8421;SDS011;4248;48.196;10.924;2022-08-19T12:36:07;3.43;;;2.43;;
8421;SDS011;4248;48.196;10.924;2022-08-19T12:38:35;3.70;;;2.47;;
8421;SDS011;4248;48.196;10.924;2022-08-19T12:41:02;3.90;;;2.60;;
8421;SDS011;4248;48.196;10.924;2022-08-19T12:43:31;3.50;;;2.27;;
8421;SDS011;4248;48.196;10.924;2022-08-19T12:45:57;5.40;;;2.23;;
8421;SDS011;4248;48.196;10.924;2022-08-19T12:48:23;3.90;;;2.57;;
8421;SDS011;4248;48.196;10.924;2022-08-19T12:50:49;3.77;;;2.40;;
8421;SDS011;4248;48.196;10.924;2022-08-19T12:53:15;3.60;;;2.50;;
8421;SDS011;4248;48.196;10.924;2022-08-19T12:55:41;3.80;;;2.13;;
8421;SDS011;4248;48.196;10.924;2022-08-19T12:58:10;3.57;;;2.70;;
8421;SDS011;4248;48.196;10.924;2022-08-19T13:00:37;3.67;;;2.50;;
8421;SDS011;4248;48.196;10.924;2022-08-19T13:03:03;3.50;;;2.77;;
8421;SDS011;4248;48.196;10.924;2022-08-19T13:05:30;3.27;;;2.10;;
8421;SDS011;4248;48.196;10.924;2022-08-19T13:07:58;3.63;;;2.60;;
8421;SDS011;4248;48.196;10.924;2022-08-19T13:10:27;4.30;;;2.47;;
8421;SDS011;4248;48.196;10.924;2022-08-19T13:13:00;3.50;;;2.27;;
8421;SDS011;4248;48.196;10.924;2022-08-19T13:15:28;4.40;;;2.43;;
8421;SDS011;4248;48.196;10.924;2022-08-19T13:17:56;3.77;;;2.50;;
8421;SDS011;4248;48.196;10.924;2022-08-19T13:20:23;8.57;;;3.03;;
8421;SDS011;4248;48.196;10.924;2022-08-19T13:22:49;10.60;;;3.20;;
8421;SDS011;4248;48.196;10.924;2022-08-19T13:25:16;5.30;;;3.23;;
8421;SDS011;4248;48.196;10.924;2022-08-19T13:27:44;4.93;;;3.70;;
8421;SDS011;4248;48.196;10.924;2022-08-19T13:30:12;5.63;;;3.93;;
8421;SDS011;4248;48.196;10.924;2022-08-19T13:32:57;7.23;;;4.60;;
8421;SDS011;4248;48.196;10.924;2022-08-19T13:35:35;5.60;;;3.93;;
8421;SDS011;4248;48.196;10.924;2022-08-19T13:38:01;5.40;;;3.90;;
8421;SDS011;4248;48.196;10.924;2022-08-19T13:40:29;8.03;;;4.47;;
8421;SDS011;4248;48.196;10.924;2022-08-19T13:42:56;7.33;;;5.23;;
8421;SDS011;4248;48.196;10.924;2022-08-19T13:45:23;6.77;;;5.00;;
8421;SDS011;4248;48.196;10.924;2022-08-19T13:47:50;6.37;;;4.97;;
8421;SDS011;4248;48.196;10.924;2022-08-19T13:50:19;6.10;;;4.67;;
8421;SDS011;4248;48.196;10.924;2022-08-19T13:52:47;6.03;;;4.17;;
8421;SDS011;4248;48.196;10.924;2022-08-19T13:55:13;6.17;;;4.00;;
8421;SDS011;4248;48.196;10.924;2022-08-19T13:57:40;5.60;;;3.93;;
8421;SDS011;4248;48.196;10.924;2022-08-19T14:00:11;7.10;;;4.87;;
8421;SDS011;4248;48.196;10.924;2022-08-19T14:02:39;7.63;;;5.60;;
8421;SDS011;4248;48.196;10.924;2022-08-19T14:05:06;8.80;;;6.03;;
8421;SDS011;4248;48.196;10.924;2022-08-19T14:07:34;6.20;;;4.60;;
8421;SDS011;4248;48.196;10.924;2022-08-19T14:10:00;7.87;;;4.90;;
8421;SDS011;4248;48.196;10.924;2022-08-19T14:12:27;9.57;;;5.77;;
8421;SDS011;4248;48.196;10.924;2022-08-19T14:14:53;8.17;;;5.70;;
8421;SDS011;4248;48.196;10.924;2022-08-19T14:17:18;7.47;;;5.57;;
8421;SDS011;4248;48.196;10.924;2022-08-19T14:19:44;7.43;;;5.60;;
8421;SDS011;4248;48.196;10.924;2022-08-19T14:22:10;7.83;;;6.20;;
8421;SDS011;4248;48.196;10.924;2022-08-19T14:24:37;7.67;;;5.30;;
8421;SDS011;4248;48.196;10.924;2022-08-19T14:27:04;7.70;;;5.73;;
8421;SDS011;4248;48.196;10.924;2022-08-19T14:29:31;7.13;;;4.90;;
8421;SDS011;4248;48.196;10.924;2022-08-19T14:31:57;7.40;;;5.20;;
8421;SDS011;4248;48.196;10.924;2022-08-19T14:34:24;6.80;;;5.10;;
8421;SDS011;4248;48.196;10.924;2022-08-19T14:36:51;7.33;;;4.70;;
8421;SDS011;4248;48.196;10.924;2022-08-19T14:39:17;7.80;;;4.80;;
8421;SDS011;4248;48.196;10.924;2022-08-19T14:41:42;6.07;;;4.07;;
8421;SDS011;4248;48.196;10.924;2022-08-19T14:44:09;6.37;;;4.20;;
8421;SDS011;4248;48.196;10.924;2022-08-19T14:46:37;5.90;;;3.60;;
8421;SDS011;4248;48.196;10.924;2022-08-19T14:49:03;4.60;;;3.57;;
8421;SDS011;4248;48.196;10.924;2022-08-19T14:51:30;3.80;;;2.40;;
8421;SDS011;4248;48.196;10.924;2022-08-19T14:53:56;4.00;;;2.83;;
8421;SDS011;4248;48.196;10.924;2022-08-19T14:56:23;5.03;;;2.93;;